Time;durP1;ratioP1;P1;durP2;ratioP2;P2;SDS_P1;SDS_P2;PMS_P1;PMS_P2;Temp;Humidity;BMP_temperature;BMP_pressure;BME280_temperature;BME280_humidity;BME280_pressure;Samples;Min_cycle;Max_cycle;Signal;HPM_P1;HPM_P2
2022/08/03 00:01:28;;;;;;;2.33;0.30;;;20.10;99.90;;;;;;5051450;28;20441;-85
2022/08/03 00:03:54;;;;;;;1.42;0.30;;;20.10;99.90;;;;;;5070415;28;20124;-85
2022/08/03 00:06:19;;;;;;;2.78;0.30;;;20.00;99.90;;;;;;5068209;28;20037;-83
2022/08/03 00:08:45;;;;;;;2.30;0.30;;;19.90;99.90;;;;;;5062085;28;20025;-81
2022/08/03 00:11:11;;;;;;;2.72;0.30;;;19.80;99.90;;;;;;5066754;28;20089;-81
2022/08/03 00:13:36;;;;;;;1.92;0.30;;;19.80;99.90;;;;;;5049731;28;20097;-81
2022/08/03 00:16:02;;;;;;;1.73;0.28;;;19.80;99.90;;;;;;5048361;28;20033;-85
2022/08/03 00:18:28;;;;;;;2.05;0.30;;;19.80;99.90;;;;;;5067241;28;20024;-81
2022/08/03 00:20:54;;;;;;;1.40;0.30;;;19.70;99.90;;;;;;5065080;28;20392;-82
2022/08/03 00:23:19;;;;;;;2.22;0.30;;;19.60;99.90;;;;;;5048365;28;20029;-82
2022/08/03 00:25:45;;;;;;;1.40;0.30;;;19.60;99.90;;;;;;5067913;28;20473;-86
2022/08/03 00:28:10;;;;;;;2.00;0.30;;;19.50;99.90;;;;;;5065867;28;20472;-82
2022/08/03 00:30:36;;;;;;;2.53;0.30;;;19.50;99.90;;;;;;5067338;28;20540;-81
2022/08/03 00:33:02;;;;;;;2.83;0.30;;;19.50;99.90;;;;;;5069531;28;20481;-82
2022/08/03 00:35:28;;;;;;;1.52;0.30;;;19.40;99.90;;;;;;5067380;28;20061;-81
2022/08/03 00:37:54;;;;;;;2.75;0.40;;;19.30;99.90;;;;;;5063455;28;20017;-81
2022/08/03 00:40:21;;;;;;;2.10;0.30;;;19.30;99.90;;;;;;5061546;28;20056;-84
2022/08/03 00:42:52;;;;;;;2.83;0.47;;;19.20;99.90;;;;;;5052471;28;20032;-81
2022/08/03 00:45:20;;;;;;;2.92;0.30;;;19.30;99.90;;;;;;5064950;28;20047;-81
2022/08/03 00:47:46;;;;;;;1.45;0.30;;;19.20;99.90;;;;;;5058593;28;20396;-81
2022/08/03 00:50:12;;;;;;;1.95;0.40;;;19.20;99.90;;;;;;5065407;28;20489;-81
2022/08/03 00:52:39;;;;;;;2.70;0.40;;;19.10;99.90;;;;;;5061026;28;20063;-81
2022/08/03 00:55:05;;;;;;;1.85;0.30;;;19.10;99.90;;;;;;5049023;28;20428;-81
2022/08/03 00:57:32;;;;;;;2.35;0.40;;;19.10;99.90;;;;;;5051827;28;20075;-81
2022/08/03 01:00:01;;;;;;;1.85;0.30;;;19.00;99.90;;;;;;5066768;28;20472;-81
2022/08/03 01:02:30;;;;;;;4.38;0.30;;;19.00;99.90;;;;;;5062665;28;20029;-82
2022/08/03 01:04:56;;;;;;;1.60;0.30;;;19.00;99.90;;;;;;5059879;28;20439;-82
2022/08/03 01:07:56;;;;;;;2.78;0.50;;;19.10;99.90;;;;;;5052192;28;20385;-81
2022/08/03 01:10:28;;;;;;;2.25;0.35;;;19.00;99.90;;;;;;5065027;28;20079;-80
2022/08/03 01:12:54;;;;;;;2.88;0.30;;;19.00;99.90;;;;;;5059027;28;20119;-81
2022/08/03 01:15:33;;;;;;;1.77;0.30;;;18.90;99.90;;;;;;5065223;28;20120;-81
2022/08/03 01:18:06;;;;;;;1.50;0.40;;;18.90;99.90;;;;;;5064117;28;20024;-80
2022/08/03 01:20:35;;;;;;;1.77;0.40;;;19.00;99.90;;;;;;5067379;28;20583;-81
2022/08/03 01:23:33;;;;;;;1.93;0.37;;;18.90;99.90;;;;;;5057594;28;20447;-80
2022/08/03 01:26:25;;;;;;;1.52;0.40;;;18.80;99.90;;;;;;5063648;28;20298;-80
2022/08/03 01:28:59;;;;;;;1.10;0.30;;;18.80;99.90;;;;;;5063143;28;20117;-82
2022/08/03 01:31:31;;;;;;;3.90;0.30;;;18.80;99.90;;;;;;5050289;28;20568;-80
2022/08/03 01:34:01;;;;;;;1.77;0.30;;;18.70;99.90;;;;;;5060654;28;20020;-81
2022/08/03 01:36:35;;;;;;;1.23;0.30;;;18.80;99.90;;;;;;5050557;28;20147;-81
2022/08/03 01:39:08;;;;;;;2.58;0.30;;;18.70;99.90;;;;;;5063324;28;20123;-80
2022/08/03 01:41:43;;;;;;;2.03;0.40;;;18.70;99.90;;;;;;5063984;28;20043;-80
2022/08/03 01:44:10;;;;;;;1.95;0.30;;;18.80;99.90;;;;;;5036584;28;20114;-81
2022/08/03 01:46:37;;;;;;;1.67;0.30;;;18.80;99.90;;;;;;5063534;28;20040;-83
2022/08/03 01:49:08;;;;;;;1.35;0.40;;;18.90;99.90;;;;;;5051121;28;20040;-84
2022/08/03 01:51:36;;;;;;;1.15;0.30;;;18.80;99.90;;;;;;5047556;28;20024;-82
2022/08/03 01:54:03;;;;;;;4.72;0.40;;;18.80;99.90;;;;;;5066105;28;20244;-81
2022/08/03 01:56:30;;;;;;;1.50;0.40;;;18.90;99.90;;;;;;5064769;28;20017;-82
2022/08/03 01:58:59;;;;;;;1.70;0.30;;;18.80;99.90;;;;;;5065614;28;20380;-84
2022/08/03 02:01:27;;;;;;;2.38;0.40;;;18.80;99.90;;;;;;5065125;28;20037;-81
2022/08/03 02:03:55;;;;;;;3.13;0.32;;;18.80;99.90;;;;;;5057605;28;20024;-84
2022/08/03 02:06:22;;;;;;;2.45;0.40;;;18.80;99.90;;;;;;5059734;28;20033;-82
2022/08/03 02:08:49;;;;;;;2.92;0.38;;;18.80;99.90;;;;;;5063194;28;20097;-81
2022/08/03 02:11:15;;;;;;;1.15;0.30;;;18.80;99.90;;;;;;5055882;28;20082;-84
2022/08/03 02:13:43;;;;;;;2.72;0.40;;;18.80;99.90;;;;;;5067997;28;20112;-81
2022/08/03 02:16:10;;;;;;;2.42;0.35;;;18.80;99.90;;;;;;5064826;28;20024;-83
2022/08/03 02:18:38;;;;;;;2.63;0.35;;;18.90;99.90;;;;;;5063380;28;20025;-81
2022/08/03 02:21:06;;;;;;;0.93;0.40;;;18.90;99.90;;;;;;5049065;28;20090;-80
2022/08/03 02:23:32;;;;;;;1.80;0.30;;;18.80;99.90;;;;;;5065434;28;20050;-82
2022/08/03 02:26:01;;;;;;;2.30;0.40;;;18.90;99.90;;;;;;5049995;28;20060;-83
2022/08/03 02:28:40;;;;;;;1.58;0.30;;;18.90;99.90;;;;;;5063322;28;20029;-92
2022/08/03 02:31:12;;;;;;;3.13;0.50;;;18.80;99.90;;;;;;5049387;28;20536;-85
2022/08/03 02:33:42;;;;;;;2.30;0.50;;;18.80;99.90;;;;;;5059195;28;20115;-88
2022/08/03 02:36:10;;;;;;;;;;;18.80;99.90;;;;;;5064191;28;20028;-86
2022/08/03 02:38:40;;;;;;;1.50;0.30;;;18.80;99.90;;;;;;5068173;28;19946;-86
2022/08/03 02:41:07;;;;;;;;;;;18.80;99.90;;;;;;5070377;28;20036;-82
2022/08/03 02:43:34;;;;;;;1.38;0.20;;;18.70;99.90;;;;;;5067198;28;20003;-80
2022/08/03 02:46:00;;;;;;;1.50;0.40;;;18.70;99.90;;;;;;5068687;28;20032;-80
2022/08/03 02:48:29;;;;;;;1.40;0.40;;;18.70;99.90;;;;;;5054227;28;20024;-84
2022/08/03 02:50:58;;;;;;;3.07;0.50;;;18.70;99.90;;;;;;5067827;28;20385;-82
2022/08/03 02:53:25;;;;;;;1.70;0.40;;;18.70;99.90;;;;;;5054516;28;20024;-81
2022/08/03 02:55:54;;;;;;;2.60;0.63;;;18.70;99.90;;;;;;5066292;28;20484;-80
2022/08/03 02:58:22;;;;;;;2.60;0.30;;;18.70;99.90;;;;;;5066646;28;20040;-82
2022/08/03 03:00:50;;;;;;;2.60;0.60;;;18.70;99.90;;;;;;5064409;28;20062;-80
2022/08/03 03:03:17;;;;;;;2.72;0.60;;;18.70;99.90;;;;;;5067327;28;20033;-86
2022/08/03 03:05:44;;;;;;;2.30;0.52;;;18.70;99.90;;;;;;5066941;28;20115;-82
2022/08/03 03:08:16;;;;;;;4.28;0.43;;;18.70;99.90;;;;;;5069643;28;20020;-81
2022/08/03 03:10:42;;;;;;;1.60;0.63;;;18.70;99.90;;;;;;5064860;28;20388;-82
2022/08/03 03:13:09;;;;;;;2.70;0.60;;;18.70;99.90;;;;;;5053680;28;20436;-82
2022/08/03 03:15:38;;;;;;;2.92;0.60;;;18.70;99.90;;;;;;5064542;28;20032;-80
2022/08/03 03:18:05;;;;;;;2.25;0.50;;;18.70;99.90;;;;;;5077280;28;20377;-81
2022/08/03 03:20:34;;;;;;;2.20;0.50;;;18.70;99.90;;;;;;5066114;28;20043;-82
2022/08/03 03:23:01;;;;;;;3.20;0.50;;;18.80;99.90;;;;;;5063926;28;20033;-83
2022/08/03 03:25:31;;;;;;;2.40;0.50;;;18.70;99.90;;;;;;5059928;28;20031;-81
2022/08/03 03:28:01;;;;;;;1.60;0.50;;;18.70;99.90;;;;;;5053927;28;20448;-83
2022/08/03 03:30:27;;;;;;;;;;;18.70;99.90;;;;;;5069672;28;20032;-88
2022/08/03 03:32:54;;;;;;;2.80;0.40;;;18.60;99.90;;;;;;5068326;28;20000;-81
2022/08/03 03:35:19;;;;;;;2.97;0.50;;;18.70;99.90;;;;;;5064815;28;20028;-87
2022/08/03 03:37:45;;;;;;;2.13;0.45;;;18.70;99.90;;;;;;5061130;28;20025;-82
2022/08/03 03:40:11;;;;;;;3.78;0.45;;;18.60;99.90;;;;;;5063960;28;20080;-84
2022/08/03 03:42:37;;;;;;;1.73;0.40;;;18.60;99.90;;;;;;5053368;28;20024;-82
2022/08/03 03:45:07;;;;;;;3.05;0.50;;;18.70;99.90;;;;;;5059464;28;20029;-84
2022/08/03 03:47:33;;;;;;;;;;;18.70;99.90;;;;;;5062682;28;20032;-83
2022/08/03 03:50:00;;;;;;;1.88;0.30;;;18.70;99.90;;;;;;5073101;28;19909;-82
2022/08/03 03:52:26;;;;;;;2.55;0.40;;;18.70;99.90;;;;;;5059842;28;20754;-81
2022/08/03 03:54:51;;;;;;;2.25;0.30;;;18.70;99.90;;;;;;5063564;28;20020;-81
2022/08/03 03:57:17;;;;;;;2.33;0.40;;;18.70;99.90;;;;;;5043765;28;20033;-81
2022/08/03 03:59:43;;;;;;;3.05;0.43;;;18.70;99.90;;;;;;5062726;28;20033;-84
2022/08/03 04:02:10;;;;;;;3.00;0.40;;;18.70;99.90;;;;;;5066702;28;20032;-85
2022/08/03 04:11:00;;;;;;;2.28;0.40;;;18.70;99.90;;;;;;5059577;28;20025;-82
2022/08/03 04:13:05;;;;;;;2.85;0.50;;;18.70;99.90;;;;;;5056087;28;20065;-84
2022/08/03 04:15:32;;;;;;;2.80;0.50;;;18.70;99.90;;;;;;5049653;28;20032;-82
2022/08/03 04:18:00;;;;;;;1.70;0.43;;;18.70;99.90;;;;;;5060712;28;20044;-83
2022/08/03 04:20:28;;;;;;;1.77;0.60;;;18.70;99.90;;;;;;5064426;28;20087;-83
2022/08/03 04:22:56;;;;;;;2.47;0.60;;;18.70;99.90;;;;;;5062605;28;20028;-84
2022/08/03 04:25:27;;;;;;;1.85;0.60;;;18.70;99.90;;;;;;5069524;28;20032;-83
2022/08/03 04:27:58;;;;;;;3.28;0.60;;;18.80;99.90;;;;;;5065365;28;20226;-83
2022/08/03 04:30:26;;;;;;;5.80;0.80;;;18.90;99.90;;;;;;5046703;28;20599;-85
2022/08/03 04:32:54;;;;;;;2.80;0.70;;;18.80;99.90;;;;;;5049079;28;20035;-81
2022/08/03 04:35:21;;;;;;;1.70;0.60;;;18.90;99.90;;;;;;5065587;28;20404;-82
2022/08/03 04:37:49;;;;;;;2.00;0.60;;;18.90;99.90;;;;;;5062187;28;20498;-83
2022/08/03 04:40:28;;;;;;;4.15;0.60;;;18.90;99.90;;;;;;5048501;28;20135;-87
2022/08/03 04:42:55;;;;;;;4.57;0.63;;;19.10;99.90;;;;;;5065879;28;20021;-82
2022/08/03 04:45:23;;;;;;;5.63;0.95;;;19.10;99.90;;;;;;5066932;28;20365;-82
2022/08/03 04:47:50;;;;;;;1.77;0.60;;;19.20;99.90;;;;;;5065419;28;20036;-88
2022/08/03 04:50:16;;;;;;;5.80;0.88;;;19.20;99.90;;;;;;5049168;28;20028;-81
2022/08/03 04:52:43;;;;;;;2.55;0.90;;;19.30;99.90;;;;;;5060154;28;20025;-82
2022/08/03 04:55:08;;;;;;;3.38;1.35;;;19.40;99.90;;;;;;5060821;28;20040;-85
2022/08/03 04:57:34;;;;;;;2.42;0.85;;;19.40;99.90;;;;;;5065218;28;20021;-83
2022/08/03 05:00:00;;;;;;;3.80;1.05;;;19.50;99.90;;;;;;5060924;28;20025;-81
2022/08/03 05:02:25;;;;;;;3.00;1.10;;;19.50;99.90;;;;;;5056582;28;20479;-82
2022/08/03 05:04:51;;;;;;;4.65;0.85;;;19.60;99.90;;;;;;5065236;28;20485;-82
2022/08/03 05:07:17;;;;;;;2.78;0.73;;;19.70;99.90;;;;;;5065187;28;20416;-82
2022/08/03 05:09:44;;;;;;;3.03;0.80;;;19.70;99.90;;;;;;5046146;28;20116;-83
2022/08/03 05:12:10;;;;;;;5.05;1.00;;;19.80;99.90;;;;;;5062545;28;20091;-81
2022/08/03 05:14:38;;;;;;;2.67;0.95;;;19.80;99.90;;;;;;5053815;28;20028;-82
2022/08/03 05:17:11;;;;;;;4.07;0.95;;;19.70;99.90;;;;;;5046460;28;20025;-88
2022/08/03 05:19:37;;;;;;;2.00;0.95;;;19.70;99.90;;;;;;5050964;28;20354;-82
2022/08/03 05:22:02;;;;;;;3.17;0.98;;;19.70;99.90;;;;;;5048374;28;20032;-83
2022/08/03 05:24:28;;;;;;;2.53;0.73;;;19.70;99.90;;;;;;5043974;28;20095;-83
2022/08/03 05:26:53;;;;;;;5.10;1.00;;;19.60;99.90;;;;;;5060053;28;20453;-83
2022/08/03 05:29:19;;;;;;;6.65;1.20;;;19.70;99.90;;;;;;5048760;28;20472;-85
2022/08/03 05:31:45;;;;;;;5.78;1.42;;;19.80;99.90;;;;;;5045670;28;20103;-82
2022/08/03 05:34:10;;;;;;;5.18;1.15;;;19.80;99.90;;;;;;5061206;28;20021;-81
2022/08/03 05:36:36;;;;;;;2.30;0.80;;;19.80;99.90;;;;;;5066683;28;20396;-83
2022/08/03 05:39:02;;;;;;;5.82;0.95;;;19.80;99.90;;;;;;5055881;28;20060;-81
2022/08/03 05:41:27;;;;;;;2.33;0.95;;;19.90;99.90;;;;;;5062329;28;20045;-81
2022/08/03 05:43:54;;;;;;;2.55;0.75;;;19.90;99.90;;;;;;5047676;28;20021;-81
2022/08/03 05:46:23;;;;;;;3.33;0.90;;;20.00;99.90;;;;;;5065472;28;20492;-84
2022/08/03 05:48:49;;;;;;;4.00;0.73;;;20.10;99.90;;;;;;5046448;28;20491;-82
2022/08/03 05:51:15;;;;;;;5.43;1.10;;;20.20;99.90;;;;;;5045034;28;20045;-82
2022/08/03 05:53:42;;;;;;;3.65;1.13;;;20.20;99.90;;;;;;5064260;28;20028;-82
2022/08/03 05:56:08;;;;;;;4.40;0.90;;;20.30;99.90;;;;;;5063126;28;20525;-81
2022/08/03 05:58:33;;;;;;;3.35;0.98;;;20.50;99.90;;;;;;5063188;28;20037;-82
2022/08/03 06:00:59;;;;;;;4.57;1.15;;;20.50;99.90;;;;;;5072506;28;20117;-82
2022/08/03 06:03:24;;;;;;;2.13;0.73;;;20.60;99.90;;;;;;5048901;28;20032;-83
2022/08/03 06:05:52;;;;;;;3.85;0.80;;;20.80;99.90;;;;;;5064335;28;20036;-81
2022/08/03 06:08:17;;;;;;;5.00;0.95;;;20.90;99.90;;;;;;5037498;28;20101;-82
2022/08/03 06:10:43;;;;;;;2.35;0.73;;;21.00;99.90;;;;;;5049137;28;20071;-82
2022/08/03 06:13:08;;;;;;;3.63;0.80;;;21.10;99.90;;;;;;5059305;28;20029;-82
2022/08/03 06:15:34;;;;;;;3.65;0.90;;;21.30;99.90;;;;;;5066027;28;20040;-81
2022/08/03 06:18:00;;;;;;;5.18;1.05;;;21.50;99.90;;;;;;5048659;28;20017;-81
2022/08/03 06:20:25;;;;;;;3.88;0.80;;;21.70;99.90;;;;;;5051947;28;20123;-87
2022/08/03 06:22:51;;;;;;;4.68;1.05;;;21.90;99.90;;;;;;5052881;28;20033;-82
2022/08/03 06:25:18;;;;;;;5.25;0.70;;;22.10;99.90;;;;;;5053590;28;20278;-83
2022/08/03 06:27:44;;;;;;;4.50;0.80;;;22.30;99.90;;;;;;5067237;28;20056;-81
2022/08/03 06:30:11;;;;;;;3.67;0.70;;;22.50;99.90;;;;;;5064003;28;20204;-82
2022/08/03 06:32:38;;;;;;;6.32;1.02;;;22.50;99.90;;;;;;5050267;28;20031;-82
2022/08/03 06:35:05;;;;;;;3.13;0.50;;;22.70;99.90;;;;;;5050153;28;20039;-82
2022/08/03 06:37:31;;;;;;;4.55;0.50;;;23.00;99.90;;;;;;5064296;28;21009;-82
2022/08/03 06:39:56;;;;;;;4.00;0.70;;;23.00;99.90;;;;;;5051726;28;20131;-81
2022/08/03 06:42:22;;;;;;;3.03;0.60;;;22.90;99.90;;;;;;5066257;28;20107;-84
2022/08/03 06:44:48;;;;;;;3.92;0.55;;;23.00;99.90;;;;;;5047055;28;20044;-82
2022/08/03 06:47:13;;;;;;;2.65;0.60;;;23.10;99.90;;;;;;5068208;28;20036;-81
2022/08/03 06:49:40;;;;;;;3.85;0.30;;;23.40;99.90;;;;;;5064255;28;20445;-85
2022/08/03 06:52:05;;;;;;;4.90;0.57;;;23.50;99.90;;;;;;5059469;28;20171;-82
2022/08/03 06:54:31;;;;;;;4.95;0.52;;;23.10;99.90;;;;;;5067752;28;20494;-82
2022/08/03 06:56:57;;;;;;;4.95;0.50;;;23.00;99.90;;;;;;5065076;28;20032;-83
2022/08/03 06:59:22;;;;;;;2.35;0.43;;;23.20;99.90;;;;;;5053471;28;20036;-90
2022/08/03 07:01:48;;;;;;;5.78;0.45;;;23.50;99.90;;;;;;5064390;28;20044;-85
2022/08/03 07:04:13;;;;;;;8.63;0.77;;;23.30;99.90;;;;;;5064764;28;20029;-83
2022/08/03 07:06:39;;;;;;;3.47;0.50;;;23.00;99.90;;;;;;5069125;28;20381;-85
2022/08/03 07:09:05;;;;;;;8.05;0.60;;;23.10;99.90;;;;;;5051186;28;20115;-83
2022/08/03 07:11:31;;;;;;;6.28;0.80;;;23.00;99.90;;;;;;5054663;28;20032;-85
2022/08/03 07:13:56;;;;;;;4.47;0.60;;;23.20;99.90;;;;;;5053818;28;20120;-86
2022/08/03 07:16:22;;;;;;;4.57;0.52;;;23.40;99.90;;;;;;5053897;28;20029;-86
2022/08/03 07:18:48;;;;;;;5.15;0.50;;;23.50;99.90;;;;;;5066786;28;20035;-87
2022/08/03 07:21:15;;;;;;;5.03;0.50;;;23.80;99.90;;;;;;5052042;28;20152;-90
2022/08/03 07:23:41;;;;;;;5.80;0.50;;;23.80;99.90;;;;;;5059451;28;20040;-83
2022/08/03 07:26:06;;;;;;;6.40;0.68;;;23.50;99.90;;;;;;5049361;28;20397;-82
2022/08/03 07:28:32;;;;;;;9.88;0.50;;;23.80;99.90;;;;;;5062447;28;20571;-83
2022/08/03 07:30:58;;;;;;;8.13;0.50;;;23.60;99.90;;;;;;5058889;28;20064;-84
2022/08/03 07:33:24;;;;;;;8.30;0.70;;;24.00;99.90;;;;;;5065450;28;20021;-83
2022/08/03 07:35:50;;;;;;;4.22;0.40;;;24.00;99.90;;;;;;5057113;28;20478;-85
2022/08/03 07:38:15;;;;;;;2.58;0.40;;;24.40;99.90;;;;;;5062286;28;20169;-88
2022/08/03 07:40:41;;;;;;;6.25;0.60;;;24.40;99.90;;;;;;5068735;28;20043;-86
2022/08/03 07:43:07;;;;;;;7.07;0.70;;;24.40;99.90;;;;;;5079795;28;20550;-84
2022/08/03 07:45:32;;;;;;;7.90;0.50;;;24.20;99.90;;;;;;5080336;28;20547;-83
2022/08/03 07:47:58;;;;;;;7.82;0.50;;;24.70;99.90;;;;;;5085079;28;20051;-85
2022/08/03 07:50:24;;;;;;;7.40;0.43;;;24.70;99.90;;;;;;5078457;28;20028;-86
2022/08/03 07:52:52;;;;;;;4.32;0.30;;;24.90;99.90;;;;;;5069062;28;20024;-85
2022/08/03 07:55:20;;;;;;;4.90;0.40;;;25.30;99.90;;;;;;5066327;28;20040;-83
2022/08/03 07:57:47;;;;;;;5.88;0.47;;;25.40;99.90;;;;;;5079317;28;20028;-85
2022/08/03 08:00:17;;;;;;;6.82;0.40;;;24.90;99.90;;;;;;5081052;28;20052;-86
2022/08/03 08:02:43;;;;;;;7.60;0.40;;;24.90;99.90;;;;;;5067748;28;20032;-88
2022/08/03 08:05:09;;;;;;;7.70;0.60;;;24.90;99.90;;;;;;5078688;28;20034;-85
2022/08/03 08:07:36;;;;;;;3.90;0.30;;;25.40;99.90;;;;;;5061856;28;20039;-88
2022/08/03 08:10:04;;;;;;;4.03;0.50;;;25.50;99.90;;;;;;5068587;28;20023;-85
2022/08/03 08:12:30;;;;;;;4.25;0.40;;;25.30;99.90;;;;;;5085422;28;20077;-85
2022/08/03 08:14:56;;;;;;;5.97;0.52;;;25.40;99.90;;;;;;5094699;28;20020;-85
2022/08/03 08:17:21;;;;;;;9.68;0.73;;;25.10;99.90;;;;;;5084296;28;20032;-83
2022/08/03 08:19:47;;;;;;;6.38;0.73;;;25.50;99.90;;;;;;5085570;28;20106;-85
2022/08/03 08:22:12;;;;;;;6.00;0.40;;;25.90;99.90;;;;;;5068746;28;20412;-85
2022/08/03 08:24:38;;;;;;;8.00;0.50;;;26.10;99.90;;;;;;5083098;28;20051;-83
2022/08/03 08:27:04;;;;;;;6.03;0.55;;;25.70;99.90;;;;;;5076700;28;20081;-84
2022/08/03 08:29:30;;;;;;;4.63;0.47;;;25.90;99.90;;;;;;5077389;28;20024;-84
2022/08/03 08:31:55;;;;;;;5.40;0.40;;;26.10;99.90;;;;;;5078154;28;20036;-84
2022/08/03 08:34:21;;;;;;;5.45;0.50;;;26.30;99.90;;;;;;5084181;28;20049;-84
2022/08/03 08:36:47;;;;;;;5.22;0.35;;;26.90;99.90;;;;;;5080662;28;20043;-83
2022/08/03 08:39:12;;;;;;;5.80;0.30;;;27.10;99.90;;;;;;5085824;28;20048;-86
2022/08/03 08:41:38;;;;;;;7.43;0.50;;;26.90;99.90;;;;;;5079493;28;20047;-84
2022/08/03 08:44:06;;;;;;;4.68;0.52;;;26.20;99.90;;;;;;5075662;28;20028;-89
2022/08/03 08:46:32;;;;;;;5.07;0.30;;;26.80;99.90;;;;;;5083525;28;20032;-85
2022/08/03 08:48:59;;;;;;;7.50;0.93;;;27.40;99.90;;;;;;5075251;28;20139;-86
2022/08/03 08:51:30;;;;;;;4.43;0.30;;;27.50;99.90;;;;;;5079037;28;20020;-85
2022/08/03 08:54:00;;;;;;;4.38;0.70;;;27.80;99.90;;;;;;5078399;28;20039;-86
2022/08/03 08:56:26;;;;;;;8.88;0.45;;;27.20;99.90;;;;;;5084686;28;20036;-85
2022/08/03 08:58:56;;;;;;;6.47;0.40;;;27.40;99.90;;;;;;5084988;28;20046;-86
2022/08/03 09:01:22;;;;;;;3.47;0.30;;;27.70;99.90;;;;;;5068080;28;20040;-86
2022/08/03 09:03:48;;;;;;;4.50;0.47;;;27.80;99.90;;;;;;5079970;28;20024;-87
2022/08/03 09:06:14;;;;;;;6.70;0.50;;;27.90;99.90;;;;;;5084673;28;20041;-85
2022/08/03 09:08:40;;;;;;;4.13;0.47;;;27.60;99.90;;;;;;5076758;28;20059;-87
2022/08/03 09:11:06;;;;;;;5.78;0.50;;;28.00;99.90;;;;;;5066752;28;20074;-86
2022/08/03 09:13:33;;;;;;;7.20;0.30;;;28.30;99.90;;;;;;5068585;28;20027;-85
2022/08/03 09:16:14;;;;;;;5.20;0.40;;;28.30;99.90;;;;;;5084355;28;20031;-87
2022/08/03 09:18:41;;;;;;;7.10;0.40;;;27.80;99.90;;;;;;5066419;28;20035;-87
2022/08/03 09:21:24;;;;;;;9.80;0.60;;;27.50;99.90;;;;;;5078650;28;20164;-86
2022/08/03 09:23:52;;;;;;;7.38;0.50;;;27.30;99.90;;;;;;5066563;28;20028;-86
2022/08/03 09:26:26;;;;;;;8.77;0.45;;;27.10;99.90;;;;;;5076249;28;20032;-86
2022/08/03 09:29:03;;;;;;;6.93;0.40;;;27.30;99.90;;;;;;5076336;28;20497;-87
2022/08/03 09:31:43;;;;;;;10.43;0.50;;;28.00;99.90;;;;;;5075394;28;20032;-86
2022/08/03 09:34:10;;;;;;;7.40;0.40;;;28.10;99.90;;;;;;5094998;28;20051;-85
2022/08/03 09:36:42;;;;;;;10.18;0.70;;;27.80;99.90;;;;;;5077148;28;20024;-86
2022/08/03 09:39:11;;;;;;;7.32;0.57;;;27.40;99.90;;;;;;5078619;28;20044;-86
2022/08/03 09:41:45;;;;;;;5.50;0.40;;;27.50;99.90;;;;;;5084685;28;20079;-87
2022/08/03 09:44:11;;;;;;;6.18;0.40;;;28.40;99.90;;;;;;5078217;28;20032;-86
2022/08/03 09:46:50;;;;;;;3.67;0.45;;;28.80;99.90;;;;;;5066932;28;20032;-86
2022/08/03 09:49:16;;;;;;;6.47;0.60;;;28.40;99.90;;;;;;5080719;28;20047;-85
2022/08/03 09:51:43;;;;;;;4.75;0.28;;;29.10;99.90;;;;;;5083444;28;20029;-86
2022/08/03 09:54:09;;;;;;;5.13;0.38;;;29.70;99.90;;;;;;5080803;28;20032;-88
2022/08/03 09:56:42;;;;;;;5.25;0.57;;;29.10;99.90;;;;;;5061129;28;20024;-86
2022/08/03 09:59:10;;;;;;;3.97;0.40;;;28.80;99.90;;;;;;5079812;28;20032;-87
2022/08/03 10:01:36;;;;;;;5.75;0.45;;;28.80;99.90;;;;;;5083870;28;20115;-85
2022/08/03 10:04:02;;;;;;;6.13;0.40;;;28.40;99.90;;;;;;5079123;28;20074;-85
2022/08/03 10:06:27;;;;;;;4.93;0.50;;;28.10;99.90;;;;;;5077940;28;20020;-86
2022/08/03 10:09:11;;;;;;;7.38;0.30;;;28.40;99.90;;;;;;5078460;28;20473;-85
2022/08/03 10:11:39;;;;;;;3.58;0.30;;;29.40;99.90;;;;;;5077940;28;20082;-88
2022/08/03 10:14:09;;;;;;;2.80;0.30;;;29.30;99.90;;;;;;5065497;28;20085;-86
2022/08/03 10:16:37;;;;;;;5.90;0.30;;;28.70;99.90;;;;;;5084103;28;20464;-88
2022/08/03 10:19:08;;;;;;;4.03;0.38;;;28.80;99.90;;;;;;5081243;28;20568;-86
2022/08/03 10:21:40;;;;;;;3.35;0.30;;;29.60;99.90;;;;;;5077760;28;20063;-86
2022/08/03 10:24:07;;;;;;;6.40;0.50;;;29.10;99.90;;;;;;5066988;28;20382;-88
2022/08/03 10:26:36;;;;;;;8.98;0.70;;;29.50;99.90;;;;;;5062176;28;20032;-90
2022/08/03 10:29:07;;;;;;;5.78;0.40;;;28.90;99.90;;;;;;5075768;28;20373;-87
2022/08/03 10:31:45;;;;;;;3.47;0.20;;;29.10;99.90;;;;;;5083204;28;20111;-86
2022/08/03 10:34:21;;;;;;;4.50;0.32;;;30.20;99.90;;;;;;5079252;28;20025;-86
2022/08/03 10:36:48;;;;;;;5.88;0.40;;;29.40;99.90;;;;;;5060991;28;20397;-86
2022/08/03 10:39:18;;;;;;;5.35;0.30;;;29.70;99.90;;;;;;5063735;28;20052;-86
2022/08/03 10:41:45;;;;;;;7.40;0.40;;;30.10;99.90;;;;;;5083200;28;20064;-86
2022/08/03 10:44:19;;;;;;;6.55;0.50;;;29.40;99.90;;;;;;5067077;28;20056;-85
2022/08/03 10:46:47;;;;;;;7.63;0.40;;;29.30;99.90;;;;;;5078870;28;20036;-88
2022/08/03 10:49:23;;;;;;;9.77;0.73;;;28.90;99.90;;;;;;5082362;28;20089;-88
2022/08/03 10:51:49;;;;;;;3.67;0.40;;;28.80;99.90;;;;;;5083967;28;20036;-85
2022/08/03 10:57:53;;;;;;;6.53;0.43;;;29.70;99.90;;;;;;5008017;28;20037;-86
2022/08/03 11:00:26;;;;;;;8.30;0.60;;;29.10;99.90;;;;;;5024941;28;20076;-84
2022/08/03 11:03:03;;;;;;;5.68;0.57;;;28.60;99.90;;;;;;5026953;28;20117;-85
2022/08/03 11:05:30;;;;;;;7.93;0.60;;;28.90;99.90;;;;;;5017703;28;20528;-86
2022/08/03 11:08:17;;;;;;;11.82;0.60;;;29.20;99.90;;;;;;5010436;28;20091;-87
2022/08/03 11:10:43;;;;;;;3.42;0.43;;;29.30;99.90;;;;;;5010583;28;20029;-85
2022/08/03 11:13:13;;;;;;;5.25;0.47;;;29.90;99.90;;;;;;5028171;28;20025;-85
2022/08/03 11:15:42;;;;;;;9.18;0.50;;;29.70;99.90;;;;;;5027999;28;20068;-86
2022/08/03 11:18:09;;;;;;;9.23;0.60;;;29.80;99.90;;;;;;5018146;28;20034;-84
2022/08/03 11:20:55;;;;;;;4.93;0.50;;;29.90;99.90;;;;;;5027003;28;20091;-86
2022/08/03 11:23:44;;;;;;;5.72;0.20;;;30.50;99.90;;;;;;5026593;28;20037;-86
2022/08/03 11:26:14;;;;;;;5.13;0.38;;;31.30;99.90;;;;;;4994100;28;20022;-84
2022/08/03 11:28:41;;;;;;;2.53;0.20;;;31.30;99.90;;;;;;5026628;28;20132;-85
2022/08/03 11:31:22;;;;;;;8.57;0.50;;;31.70;99.90;;;;;;5016252;28;20501;-85
2022/08/03 11:34:06;;;;;;;7.97;0.45;;;31.20;99.90;;;;;;5022951;28;20050;-84
2022/08/03 11:37:10;;;;;;;6.32;0.40;;;31.40;99.90;;;;;;5062313;28;20024;-86
2022/08/03 11:39:39;;;;;;;10.45;0.68;;;32.10;99.90;;;;;;5081145;28;20514;-86
2022/08/03 11:42:23;;;;;;;11.57;0.80;;;31.30;99.90;;;;;;5080917;28;20047;-85
2022/08/03 11:44:53;;;;;;;5.30;0.32;;;31.00;99.90;;;;;;5087131;28;20039;-85
2022/08/03 11:47:20;;;;;;;7.75;0.50;;;31.30;99.90;;;;;;5063770;28;20104;-86
2022/08/03 11:49:47;;;;;;;8.90;0.70;;;31.60;99.90;;;;;;5080830;28;20028;-86
2022/08/03 11:52:14;;;;;;;7.95;0.50;;;30.90;99.90;;;;;;5078770;28;20028;-87
2022/08/03 11:54:40;;;;;;;9.85;0.60;;;30.80;99.90;;;;;;5068217;28;20056;-85
2022/08/03 11:57:06;;;;;;;5.40;0.55;;;31.30;99.90;;;;;;5079301;28;20060;-85
2022/08/03 11:59:33;;;;;;;4.82;0.40;;;31.70;99.90;;;;;;5086970;28;20031;-85
2022/08/03 12:02:10;;;;;;;6.25;0.60;;;32.10;99.90;;;;;;5065566;28;20602;-86
2022/08/03 12:04:53;;;;;;;7.30;0.50;;;31.90;99.90;;;;;;5068988;28;20095;-86
2022/08/03 12:07:19;;;;;;;6.57;0.50;;;31.90;99.90;;;;;;5063051;28;20468;-82
2022/08/03 12:10:17;;;;;;;10.38;0.80;;;32.10;99.90;;;;;;5079755;28;20208;-86
2022/08/03 12:12:43;;;;;;;10.02;1.00;;;31.30;99.90;;;;;;5027491;28;20062;-84
2022/08/03 12:15:09;;;;;;;16.52;1.60;;;30.60;99.90;;;;;;5069183;28;20032;-86
2022/08/03 12:17:38;;;;;;;17.05;0.93;;;30.70;99.90;;;;;;5085643;28;20377;-86
2022/08/03 12:20:06;;;;;;;9.33;0.60;;;30.90;99.90;;;;;;5063295;28;20037;-86
2022/08/03 12:22:39;;;;;;;7.93;0.50;;;31.40;99.90;;;;;;5076568;28;20281;-86
2022/08/03 12:25:20;;;;;;;11.52;1.00;;;32.20;99.90;;;;;;5068133;28;20036;-85
2022/08/03 12:27:46;;;;;;;9.80;0.40;;;31.30;99.90;;;;;;5084685;28;20056;-86
2022/08/03 12:30:12;;;;;;;7.25;0.60;;;31.00;99.90;;;;;;5068041;28;20056;-85
2022/08/03 12:32:37;;;;;;;8.00;0.70;;;31.50;99.90;;;;;;5077286;28;20032;-86
2022/08/03 12:35:04;;;;;;;10.98;0.65;;;31.20;99.90;;;;;;5067733;28;20286;-86
2022/08/03 12:37:30;;;;;;;9.40;0.70;;;31.20;99.90;;;;;;5064460;28;20035;-87
2022/08/03 12:40:00;;;;;;;11.32;0.90;;;30.70;99.90;;;;;;5067627;28;20047;-87
2022/08/03 12:42:44;;;;;;;9.20;0.50;;;30.60;99.90;;;;;;5062421;28;20035;-87
2022/08/03 12:45:19;;;;;;;12.43;1.00;;;31.00;99.90;;;;;;5080479;28;20016;-87
2022/08/03 12:47:55;;;;;;;10.40;0.68;;;30.90;99.90;;;;;;5076796;28;20489;-86
2022/08/03 12:50:32;;;;;;;6.32;0.40;;;31.20;99.90;;;;;;5060803;28;20421;-88
2022/08/03 12:53:00;;;;;;;7.72;0.90;;;31.30;99.90;;;;;;5082302;28;20038;-83
2022/08/03 12:55:32;;;;;;;12.07;0.60;;;31.00;99.90;;;;;;5080221;28;20043;-87
2022/08/03 12:58:09;;;;;;;7.93;0.85;;;30.70;99.90;;;;;;5080308;28;20035;-86
2022/08/03 13:00:36;;;;;;;4.35;0.32;;;30.70;99.90;;;;;;5078359;28;20126;-87
2022/08/03 13:03:04;;;;;;;5.50;0.35;;;30.80;99.90;;;;;;5084056;28;20039;-87
2022/08/03 13:05:31;;;;;;;5.60;0.40;;;31.30;99.90;;;;;;5078345;28;20490;-86